Atlanta, Indiana
Current Conditions -  °F | °C
As of 8:15 AM on Thursday 23 Oct 2014 (Local Time) from KTYQ Reporting Station
Moderate Fog Moderate Fog  
Wind Chill: 31°   Ceiling: Unl
Heat Index: 31°   Visibility: 0mi
Dew Point: 28°   Wind: 0mph
Humidity: 91%   Direction: NA
Pressure: 30.25"   Gusts: NA
Location:  40.22°N, 86.03°W
Report Text: KTYQ 231215Z AUTO 00000KT M1/4SM FZFG VV000 M01/M02 A3025 RMK AO2 T10071020
Loading
Personal Weather Stations






























Interactive Weather Map
Tropical Storm Tracking
New forecast layout! Learn more

10-Day Weather Forecast

Advertisements
Track Severe Weather on mobile